Time;durP1;ratioP1;P1;durP2;ratioP2;P2;SDS_P1;SDS_P2;PMS_P1;PMS_P2;Temp;Humidity;BMP_temperature;BMP_pressure;BME280_temperature;BME280_humidity;BME280_pressure;Samples;Min_cycle;Max_cycle;Signal;HPM_P1;HPM_P2
2023/08/14 00:00:48;;;;;;;8.55;3.60;;;18.00;92.20;;;;;;5026382;28;20041;-77
2023/08/14 00:03:15;;;;;;;7.20;3.03;;;18.10;91.90;;;;;;5054716;28;20049;-77
2023/08/14 00:05:42;;;;;;;10.43;3.75;;;18.10;91.90;;;;;;5030812;28;20118;-77
2023/08/14 00:08:09;;;;;;;11.93;3.67;;;18.10;92.10;;;;;;5033750;28;20450;-77
2023/08/14 00:10:36;;;;;;;9.88;3.38;;;18.10;91.80;;;;;;5058724;28;20076;-77
2023/08/14 00:13:03;;;;;;;6.00;3.55;;;18.10;91.80;;;;;;5042387;28;20049;-77
2023/08/14 00:15:30;;;;;;;7.60;3.42;;;18.10;91.80;;;;;;5049998;28;20068;-77
2023/08/14 00:17:57;;;;;;;9.02;2.92;;;18.10;91.80;;;;;;5049257;28;20049;-77
2023/08/14 00:20:24;;;;;;;12.75;3.33;;;18.10;91.70;;;;;;5056146;28;20067;-77
2023/08/14 00:22:51;;;;;;;9.57;3.67;;;18.10;91.50;;;;;;5040295;28;20041;-77
2023/08/14 00:25:18;;;;;;;12.60;3.33;;;18.10;91.40;;;;;;5060196;28;20040;-77
2023/08/14 00:27:45;;;;;;;12.40;4.03;;;18.10;91.60;;;;;;5029480;28;20049;-77
2023/08/14 00:30:12;;;;;;;10.82;3.58;;;18.10;91.40;;;;;;5056909;28;20069;-77
2023/08/14 00:32:39;;;;;;;12.48;4.10;;;18.10;91.50;;;;;;5054490;28;20127;-77
2023/08/14 00:35:06;;;;;;;15.25;3.67;;;18.10;91.70;;;;;;5056264;28;20049;-77
2023/08/14 00:37:44;;;;;;;8.50;3.85;;;18.10;91.60;;;;;;5053199;28;20485;-77
2023/08/14 00:40:12;;;;;;;7.60;3.63;;;18.00;91.50;;;;;;5055439;28;20044;-77
2023/08/14 00:42:40;;;;;;;12.93;4.38;;;18.10;91.70;;;;;;5033524;28;20046;-77
2023/08/14 00:45:07;;;;;;;7.88;3.58;;;18.10;91.80;;;;;;5036373;28;20152;-77
2023/08/14 00:47:35;;;;;;;10.90;3.70;;;18.00;91.90;;;;;;5037131;28;20122;-77
2023/08/14 00:50:07;;;;;;;8.93;3.67;;;18.00;92.30;;;;;;5047101;28;20056;-77
2023/08/14 00:52:37;;;;;;;6.05;2.97;;;18.00;92.50;;;;;;5032208;28;20049;-78
2023/08/14 00:55:08;;;;;;;10.45;3.55;;;18.00;92.90;;;;;;5054305;28;20644;-77
2023/08/14 00:57:35;;;;;;;8.40;3.65;;;17.90;93.50;;;;;;5040832;28;20080;-77
2023/08/14 01:00:07;;;;;;;9.35;3.83;;;17.90;93.30;;;;;;5055245;28;20110;-76
2023/08/14 01:02:34;;;;;;;9.10;3.45;;;17.90;93.10;;;;;;5021846;28;20045;-77
2023/08/14 01:05:01;;;;;;;6.78;2.88;;;17.80;93.50;;;;;;5055872;28;20445;-77
2023/08/14 01:07:31;;;;;;;8.43;2.97;;;17.70;93.80;;;;;;5030143;28;20087;-77
2023/08/14 01:09:58;;;;;;;7.22;3.20;;;17.70;94.30;;;;;;5049177;28;20629;-77
2023/08/14 01:12:45;;;;;;;10.15;3.92;;;17.60;94.40;;;;;;5027581;28;20160;-77
2023/08/14 01:15:19;;;;;;;12.63;3.95;;;17.60;94.70;;;;;;5024590;28;20044;-77
2023/08/14 01:17:57;;;;;;;9.85;4.00;;;17.60;94.80;;;;;;5027033;28;20069;-77
2023/08/14 01:20:27;;;;;;;10.05;3.90;;;17.60;94.70;;;;;;5043955;28;20741;-77
2023/08/14 01:23:05;;;;;;;9.50;3.78;;;17.60;94.80;;;;;;5051462;28;20037;-77
2023/08/14 01:25:33;;;;;;;9.00;3.58;;;17.60;94.90;;;;;;5031211;28;20131;-78
2023/08/14 01:28:02;;;;;;;13.80;3.65;;;17.60;95.00;;;;;;5053353;28;20774;-78
2023/08/14 01:30:29;;;;;;;12.05;3.67;;;17.60;94.90;;;;;;5028967;28;20123;-77
2023/08/14 01:32:56;;;;;;;7.25;3.30;;;17.60;95.10;;;;;;5051649;28;20449;-77
2023/08/14 01:35:26;;;;;;;10.18;3.35;;;17.60;95.10;;;;;;5047540;28;20076;-77
2023/08/14 01:38:11;;;;;;;8.63;3.58;;;17.50;95.10;;;;;;5034053;28;20041;-78
2023/08/14 01:40:41;;;;;;;8.27;3.30;;;17.50;95.10;;;;;;5051398;28;20548;-77
2023/08/14 01:43:13;;;;;;;12.35;3.85;;;17.50;95.00;;;;;;5033138;28;20049;-77
2023/08/14 01:45:41;;;;;;;8.80;3.83;;;17.50;95.10;;;;;;5025548;28;20081;-78
2023/08/14 01:48:11;;;;;;;7.57;3.88;;;17.50;95.20;;;;;;5047862;28;20072;-77
2023/08/14 01:50:39;;;;;;;10.73;3.85;;;17.50;95.20;;;;;;5051609;28;20552;-77
2023/08/14 01:53:06;;;;;;;12.38;4.38;;;17.50;95.10;;;;;;5031948;28;20084;-77
2023/08/14 01:55:33;;;;;;;12.80;4.18;;;17.50;95.10;;;;;;5025296;28;20414;-78
2023/08/14 01:58:00;;;;;;;9.07;3.63;;;17.50;95.10;;;;;;5053794;28;20087;-77
2023/08/14 02:00:29;;;;;;;11.30;4.07;;;17.50;95.10;;;;;;5039872;28;20183;-77
2023/08/14 02:02:57;;;;;;;9.68;4.07;;;17.40;95.10;;;;;;5054576;28;20788;-78
2023/08/14 02:05:24;;;;;;;9.68;4.10;;;17.40;95.00;;;;;;5049660;28;20080;-78
2023/08/14 02:07:52;;;;;;;11.18;4.82;;;17.40;95.00;;;;;;5039614;28;20979;-77
2023/08/14 02:10:19;;;;;;;9.70;4.20;;;17.40;94.90;;;;;;5023215;28;20103;-77
2023/08/14 02:12:46;;;;;;;10.43;4.60;;;17.40;94.90;;;;;;5038032;28;20080;-77
2023/08/14 02:15:12;;;;;;;15.05;4.75;;;17.40;94.70;;;;;;5057032;28;20045;-77
2023/08/14 02:17:39;;;;;;;10.70;4.63;;;17.40;94.60;;;;;;5046755;28;20094;-77
2023/08/14 02:20:08;;;;;;;14.48;4.53;;;17.40;94.60;;;;;;5041187;28;20055;-77
2023/08/14 02:22:35;;;;;;;10.80;4.30;;;17.40;94.60;;;;;;5044961;28;20543;-77
2023/08/14 02:25:02;;;;;;;11.45;4.93;;;17.40;94.70;;;;;;5050709;28;20884;-78
2023/08/14 02:27:29;;;;;;;11.95;4.55;;;17.40;94.90;;;;;;5029573;28;20044;-77
2023/08/14 02:29:56;;;;;;;9.40;4.60;;;17.30;94.80;;;;;;5060813;28;20052;-78
2023/08/14 02:32:22;;;;;;;14.98;4.70;;;17.20;95.10;;;;;;5034494;28;20052;-78
2023/08/14 02:34:52;;;;;;;8.27;5.00;;;17.20;95.20;;;;;;5050363;28;20052;-77
2023/08/14 02:37:19;;;;;;;13.80;4.60;;;17.20;94.80;;;;;;5027807;28;20500;-77
2023/08/14 02:39:46;;;;;;;12.48;4.55;;;17.10;95.10;;;;;;5032246;28;20060;-77
2023/08/14 02:42:17;;;;;;;19.85;4.80;;;17.10;95.10;;;;;;5026262;28;20045;-77
2023/08/14 02:44:45;;;;;;;10.40;4.35;;;17.00;95.10;;;;;;5040821;28;20045;-77
2023/08/14 02:47:13;;;;;;;7.25;4.47;;;16.90;95.40;;;;;;5051406;28;20126;-78
2023/08/14 02:49:40;;;;;;;11.73;5.10;;;16.90;95.90;;;;;;5035951;28;20037;-78
2023/08/14 02:52:07;;;;;;;14.75;4.60;;;16.80;96.10;;;;;;5051660;28;20057;-78
2023/08/14 02:54:34;;;;;;;15.07;4.68;;;16.70;96.20;;;;;;5051489;28;20045;-78
2023/08/14 02:57:01;;;;;;;12.13;4.50;;;16.70;96.40;;;;;;5056035;28;20053;-78
2023/08/14 02:59:28;;;;;;;14.68;5.03;;;16.60;96.40;;;;;;5054399;28;20045;-78
2023/08/14 03:01:55;;;;;;;13.43;5.13;;;16.60;96.70;;;;;;5034129;28;20128;-78
2023/08/14 03:04:22;;;;;;;15.07;5.47;;;16.50;96.60;;;;;;5062212;28;20064;-78
2023/08/14 03:06:49;;;;;;;14.48;5.40;;;16.50;97.10;;;;;;5034278;28;20782;-78
2023/08/14 03:09:15;;;;;;;17.25;6.03;;;16.50;97.20;;;;;;5054673;28;20151;-78
2023/08/14 03:11:42;;;;;;;13.43;6.03;;;16.40;97.10;;;;;;5045865;28;20409;-78
2023/08/14 03:14:09;;;;;;;13.57;5.45;;;16.30;97.20;;;;;;5041796;28;20052;-78
2023/08/14 03:16:36;;;;;;;18.48;6.10;;;16.30;97.30;;;;;;5060272;28;20049;-78
2023/08/14 03:19:03;;;;;;;14.88;6.25;;;16.30;97.50;;;;;;5052662;28;20055;-78
2023/08/14 03:21:30;;;;;;;15.50;5.68;;;16.30;97.80;;;;;;5054586;28;20044;-78
2023/08/14 03:23:57;;;;;;;16.20;6.50;;;16.20;97.90;;;;;;5048032;28;20537;-78
2023/08/14 03:26:24;;;;;;;11.32;5.97;;;16.10;97.90;;;;;;5033930;28;20080;-78
2023/08/14 03:28:51;;;;;;;15.25;5.97;;;16.10;97.90;;;;;;5051503;28;20048;-79
2023/08/14 03:31:18;;;;;;;15.63;6.25;;;16.10;98.10;;;;;;5050889;28;20512;-78
2023/08/14 03:33:45;;;;;;;12.43;5.47;;;16.00;98.10;;;;;;5034087;28;20045;-79
2023/08/14 03:36:12;;;;;;;14.68;5.90;;;16.00;98.30;;;;;;5058121;28;20052;-78
2023/08/14 03:38:38;;;;;;;20.98;6.60;;;16.00;98.20;;;;;;5031874;28;20041;-79
2023/08/14 03:41:05;;;;;;;16.17;6.47;;;15.90;98.50;;;;;;5033353;28;20048;-78
2023/08/14 03:43:33;;;;;;;18.23;6.60;;;15.90;98.70;;;;;;5050680;28;20123;-78
2023/08/14 03:45:59;;;;;;;12.77;6.35;;;15.90;99.20;;;;;;5048850;28;20045;-78
2023/08/14 03:48:26;;;;;;;12.85;5.68;;;15.90;99.40;;;;;;5050284;28;20047;-78
2023/08/14 03:50:53;;;;;;;15.63;6.50;;;15.80;99.50;;;;;;5022255;28;20045;-78
2023/08/14 03:53:20;;;;;;;19.95;6.63;;;15.70;99.50;;;;;;5049969;28;20072;-78
2023/08/14 03:55:48;;;;;;;14.27;5.70;;;15.70;99.60;;;;;;5037610;28;20114;-78
2023/08/14 03:58:15;;;;;;;17.42;6.80;;;15.70;99.80;;;;;;5052160;28;20126;-78
2023/08/14 04:00:42;;;;;;;20.63;6.47;;;15.70;99.80;;;;;;5027376;28;20122;-77
2023/08/14 04:03:09;;;;;;;17.50;6.35;;;15.60;100.00;;;;;;5034936;28;20120;-77
2023/08/14 04:05:40;;;;;;;13.27;6.30;;;15.60;100.00;;;;;;5043071;28;20444;-76
2023/08/14 04:08:07;;;;;;;17.27;6.03;;;15.60;100.00;;;;;;5027416;28;20763;-77
2023/08/14 04:10:36;;;;;;;14.70;6.47;;;15.60;100.00;;;;;;5051082;28;20149;-76
2023/08/14 04:13:05;;;;;;;14.13;6.47;;;15.60;100.00;;;;;;5034754;28;20053;-77
2023/08/14 04:15:32;;;;;;;25.40;7.20;;;15.60;100.00;;;;;;5048952;28;20048;-76
2023/08/14 04:17:59;;;;;;;19.63;7.57;;;15.50;100.00;;;;;;5026766;28;20510;-75
2023/08/14 04:20:26;;;;;;;13.48;5.65;;;15.60;100.00;;;;;;5049153;28;20155;-76
2023/08/14 04:22:53;;;;;;;14.75;6.15;;;15.60;100.00;;;;;;5036266;28;20147;-76
2023/08/14 04:27:37;;;;;;;12.88;6.45;;;15.50;100.00;;;;;;5073614;27;20806;-76
2023/08/14 04:30:05;;;;;;;14.02;6.30;;;15.50;100.00;;;;;;5073950;28;20052;-75
2023/08/14 04:32:33;;;;;;;10.65;6.00;;;15.50;100.00;;;;;;5078384;28;20059;-76
2023/08/14 04:35:00;;;;;;;14.45;6.35;;;15.50;100.00;;;;;;5078411;28;20052;-76
2023/08/14 04:37:27;;;;;;;12.38;6.40;;;15.50;100.00;;;;;;5082840;28;20798;-76
2023/08/14 04:39:53;;;;;;;15.40;6.45;;;15.50;100.00;;;;;;5074591;28;20057;-76
2023/08/14 04:42:20;;;;;;;12.82;6.18;;;15.50;100.00;;;;;;5074496;28;20052;-76
2023/08/14 04:44:47;;;;;;;15.68;6.50;;;15.50;100.00;;;;;;5073788;28;20453;-76
2023/08/14 04:47:14;;;;;;;16.50;6.63;;;15.50;100.00;;;;;;5081599;28;20047;-76
2023/08/14 04:49:41;;;;;;;16.35;6.57;;;15.60;100.00;;;;;;5079883;28;20106;-76
2023/08/14 04:52:07;;;;;;;13.88;6.63;;;15.60;100.00;;;;;;5079067;28;20056;-76
2023/08/14 04:54:34;;;;;;;22.17;6.72;;;15.70;100.00;;;;;;5068355;28;20037;-76
2023/08/14 04:57:01;;;;;;;10.90;5.70;;;15.80;100.00;;;;;;5077720;28;20056;-76
2023/08/14 04:59:29;;;;;;;15.75;6.55;;;15.90;100.00;;;;;;5080195;28;20167;-76
2023/08/14 05:01:55;;;;;;;15.30;8.02;;;16.00;100.00;;;;;;5082902;28;20060;-76
2023/08/14 05:04:23;;;;;;;20.88;6.68;;;16.10;100.00;;;;;;5080859;28;20052;-76
2023/08/14 05:06:52;;;;;;;15.45;6.78;;;16.30;100.00;;;;;;5075115;28;20070;-76
2023/08/14 05:09:19;;;;;;;17.75;7.40;;;16.40;100.00;;;;;;5077619;28;20050;-76
2023/08/14 05:11:53;;;;;;;21.45;7.90;;;16.60;100.00;;;;;;5066349;28;20037;-76
2023/08/14 05:14:20;;;;;;;17.30;7.60;;;16.70;100.00;;;;;;5074786;28;20109;-76
2023/08/14 05:16:47;;;;;;;17.65;8.52;;;16.80;99.90;;;;;;5081909;28;20109;-77
2023/08/14 05:19:14;;;;;;;15.27;7.13;;;16.90;99.60;;;;;;5084140;28;20676;-76
2023/08/14 05:21:41;;;;;;;16.88;7.88;;;17.00;99.40;;;;;;5077550;28;20078;-77
2023/08/14 05:24:09;;;;;;;24.25;8.18;;;17.10;99.10;;;;;;5083015;28;20090;-79
2023/08/14 05:26:36;;;;;;;19.90;8.25;;;17.10;98.80;;;;;;5073061;28;20048;-76
2023/08/14 05:29:03;;;;;;;16.55;7.72;;;17.20;98.70;;;;;;5068711;28;20150;-76
2023/08/14 05:31:30;;;;;;;17.35;8.60;;;17.20;98.60;;;;;;5069953;28;20082;-78
2023/08/14 05:33:56;;;;;;;18.13;7.78;;;17.30;98.50;;;;;;5078997;28;20114;-76
2023/08/14 05:36:23;;;;;;;24.52;7.88;;;17.30;98.20;;;;;;5074915;28;20456;-78
2023/08/14 05:38:50;;;;;;;20.42;7.10;;;17.40;97.90;;;;;;5057546;28;20056;-77
2023/08/14 05:41:18;;;;;;;21.70;8.05;;;17.40;97.90;;;;;;5062593;28;20495;-78
2023/08/14 05:43:45;;;;;;;16.92;8.13;;;17.50;97.80;;;;;;5071564;28;20127;-74
2023/08/14 05:46:12;;;;;;;19.58;8.55;;;17.60;97.50;;;;;;5055617;28;20055;-75
2023/08/14 05:48:39;;;;;;;16.08;7.93;;;17.60;96.80;;;;;;5062561;28;20048;-75
2023/08/14 05:51:07;;;;;;;15.80;7.18;;;17.70;96.50;;;;;;5069062;28;20113;-75
2023/08/14 05:53:34;;;;;;;13.88;7.50;;;17.80;96.50;;;;;;5073234;28;20044;-75
2023/08/14 05:56:01;;;;;;;16.67;7.80;;;17.90;95.80;;;;;;5066309;28;20776;-75
2023/08/14 05:58:28;;;;;;;22.50;7.95;;;18.00;95.80;;;;;;5067683;28;20056;-75
2023/08/14 06:00:54;;;;;;;18.65;7.28;;;18.10;95.30;;;;;;5066746;28;20072;-75
2023/08/14 06:03:21;;;;;;;12.90;7.00;;;18.10;94.60;;;;;;5063409;28;20121;-75
2023/08/14 06:06:08;;;;;;;19.30;7.40;;;18.20;94.10;;;;;;5062924;28;20568;-75
2023/08/14 06:08:35;;;;;;;13.30;6.45;;;18.40;94.60;;;;;;5073948;28;20044;-75
2023/08/14 06:11:03;;;;;;;15.43;6.57;;;18.50;93.90;;;;;;5076714;28;20041;-75
2023/08/14 06:13:30;;;;;;;13.05;5.93;;;18.60;94.20;;;;;;5067184;28;20127;-75
2023/08/14 06:15:57;;;;;;;14.35;7.07;;;18.80;93.50;;;;;;5065468;28;20056;-76
2023/08/14 06:18:24;;;;;;;15.02;6.30;;;19.10;92.30;;;;;;5064524;28;20152;-74
2023/08/14 06:20:51;;;;;;;12.32;5.68;;;19.40;92.30;;;;;;5065447;28;20052;-74
2023/08/14 06:23:18;;;;;;;9.20;5.57;;;19.80;90.60;;;;;;5063126;28;20044;-74
2023/08/14 06:25:46;;;;;;;14.23;5.60;;;20.30;88.90;;;;;;5067633;28;20496;-75
2023/08/14 06:28:13;;;;;;;15.70;5.22;;;20.90;87.40;;;;;;5065602;28;20685;-74
2023/08/14 06:30:40;;;;;;;14.40;5.47;;;21.40;84.20;;;;;;5067602;28;20492;-74
2023/08/14 06:33:07;;;;;;;12.35;4.50;;;21.90;81.50;;;;;;5066805;28;20051;-75
2023/08/14 06:35:34;;;;;;;22.30;6.40;;;22.40;79.60;;;;;;5061775;28;20080;-75
2023/08/14 06:38:01;;;;;;;9.73;4.05;;;23.00;77.60;;;;;;5063513;28;20113;-75
2023/08/14 06:40:28;;;;;;;7.47;3.53;;;23.40;77.00;;;;;;5067343;28;20060;-74
2023/08/14 06:42:55;;;;;;;11.07;4.15;;;23.90;75.50;;;;;;5067837;28;20055;-74
2023/08/14 06:45:22;;;;;;;11.73;3.80;;;24.30;75.10;;;;;;5063589;28;20190;-75
2023/08/14 06:47:49;;;;;;;13.85;5.32;;;24.60;72.10;;;;;;5067702;28;20074;-75
2023/08/14 06:50:19;;;;;;;22.67;4.88;;;24.70;72.00;;;;;;5065289;28;20242;-75
2023/08/14 06:52:49;;;;;;;6.35;3.28;;;25.00;72.00;;;;;;5064274;28;20181;-75
2023/08/14 06:55:15;;;;;;;11.45;3.33;;;25.20;71.30;;;;;;5062819;28;20052;-75
2023/08/14 06:57:42;;;;;;;9.55;4.05;;;25.10;71.40;;;;;;5066219;28;20055;-75
2023/08/14 07:00:13;;;;;;;13.82;3.72;;;25.20;71.80;;;;;;5064782;28;20052;-75
2023/08/14 07:02:45;;;;;;;7.88;3.45;;;25.30;72.20;;;;;;5068506;28;20073;-75
2023/08/14 07:05:12;;;;;;;10.82;3.42;;;25.40;70.90;;;;;;5064937;28;20142;-74
2023/08/14 07:07:40;;;;;;;8.02;4.40;;;25.50;71.50;;;;;;5063480;28;20049;-75
2023/08/14 07:10:07;;;;;;;11.00;3.60;;;25.70;70.00;;;;;;5062897;28;20036;-75
2023/08/14 07:12:34;;;;;;;10.55;5.13;;;26.00;69.00;;;;;;5064806;28;20059;-75
2023/08/14 07:15:01;;;;;;;11.93;3.45;;;26.10;68.20;;;;;;5064288;28;20123;-74
2023/08/14 07:17:32;;;;;;;8.95;3.67;;;26.50;67.40;;;;;;5065155;28;20052;-74
2023/08/14 07:19:59;;;;;;;9.18;3.65;;;27.20;66.40;;;;;;5063877;28;20128;-76
2023/08/14 07:22:26;;;;;;;13.18;3.15;;;27.80;64.20;;;;;;5063343;28;20048;-75
2023/08/14 07:24:53;;;;;;;8.68;3.13;;;28.50;62.40;;;;;;5062788;28;20076;-76
2023/08/14 07:27:20;;;;;;;7.57;3.25;;;29.40;60.50;;;;;;5060568;28;20705;-75
2023/08/14 07:29:50;;;;;;;16.25;3.72;;;29.90;58.70;;;;;;5060461;28;20049;-77
2023/08/14 07:32:16;;;;;;;8.88;3.65;;;29.90;57.60;;;;;;5064471;28;20095;-77
2023/08/14 07:34:44;;;;;;;19.08;5.68;;;30.50;57.60;;;;;;5070881;28;20741;-77
2023/08/14 07:37:11;;;;;;;11.43;3.20;;;31.00;56.30;;;;;;5069552;28;20082;-77
2023/08/14 07:39:38;;;;;;;10.65;3.22;;;31.10;55.50;;;;;;5064404;28;20084;-75
2023/08/14 07:42:04;;;;;;;14.43;3.17;;;31.30;53.70;;;;;;5070074;28;20048;-78
2023/08/14 07:44:31;;;;;;;9.63;2.88;;;31.70;54.90;;;;;;5058147;28;20080;-77
2023/08/14 07:46:58;;;;;;;10.75;3.28;;;31.80;54.90;;;;;;5071580;28;20056;-77
2023/08/14 07:49:25;;;;;;;8.73;3.60;;;31.90;53.50;;;;;;5067359;28;20056;-77
2023/08/14 07:51:52;;;;;;;9.20;3.50;;;32.00;55.20;;;;;;5067941;28;20048;-75
2023/08/14 07:54:19;;;;;;;8.85;3.08;;;32.00;54.30;;;;;;5068847;28;20098;-75
2023/08/14 07:56:45;;;;;;;9.98;3.00;;;32.20;54.20;;;;;;5069467;28;20078;-75
2023/08/14 07:59:16;;;;;;;6.82;2.78;;;32.20;52.80;;;;;;5068534;28;20504;-75
2023/08/14 08:01:43;;;;;;;6.88;2.83;;;32.30;52.60;;;;;;5061578;28;20885;-75
2023/08/14 08:04:10;;;;;;;10.85;2.78;;;32.40;53.40;;;;;;5059802;28;20055;-76
2023/08/14 08:06:52;;;;;;;12.18;3.35;;;32.30;53.50;;;;;;5067645;28;20048;-76
2023/08/14 08:09:19;;;;;;;9.68;2.50;;;32.50;52.20;;;;;;5069838;28;20394;-76
2023/08/14 08:11:46;;;;;;;10.63;2.80;;;32.30;52.10;;;;;;5066985;28;20090;-75
2023/08/14 08:14:13;;;;;;;8.35;2.47;;;32.30;52.30;;;;;;5073613;28;20131;-76
2023/08/14 08:16:39;;;;;;;14.00;2.60;;;32.30;50.80;;;;;;5069771;28;20109;-76
2023/08/14 08:19:07;;;;;;;7.43;2.90;;;32.40;52.90;;;;;;5060705;28;20054;-78
2023/08/14 08:21:34;;;;;;;20.27;3.28;;;32.40;53.40;;;;;;5069069;28;20083;-76
2023/08/14 08:24:01;;;;;;;6.70;1.92;;;32.60;51.60;;;;;;5068875;28;20146;-76
2023/08/14 08:26:27;;;;;;;5.10;2.25;;;32.50;51.50;;;;;;5070729;28;20676;-76
2023/08/14 08:28:54;;;;;;;10.88;3.20;;;32.50;51.00;;;;;;5062975;28;20128;-75
2023/08/14 08:31:22;;;;;;;4.32;1.88;;;32.50;51.00;;;;;;5062869;28;20076;-76
2023/08/14 08:33:49;;;;;;;2.65;1.75;;;32.10;47.30;;;;;;5073420;28;20172;-75
2023/08/14 08:36:19;;;;;;;7.32;1.77;;;31.80;48.10;;;;;;5059329;28;20647;-75
2023/08/14 08:38:47;;;;;;;2.92;1.40;;;32.10;49.10;;;;;;5068522;28;20047;-75
2023/08/14 08:41:24;;;;;;;5.45;2.15;;;32.10;46.70;;;;;;5062386;28;20052;-76
2023/08/14 08:44:03;;;;;;;4.03;1.77;;;32.20;47.00;;;;;;5060184;28;20141;-76
2023/08/14 08:46:37;;;;;;;3.00;1.50;;;32.30;47.00;;;;;;5071191;28;20155;-76
2023/08/14 08:49:05;;;;;;;7.20;2.30;;;32.70;47.60;;;;;;5065997;28;20079;-75
2023/08/14 08:51:34;;;;;;;4.30;2.20;;;32.50;46.60;;;;;;5063427;28;20132;-75
2023/08/14 08:54:01;;;;;;;6.25;2.22;;;32.20;46.50;;;;;;5062431;28;20052;-77
2023/08/14 08:56:28;;;;;;;6.90;2.20;;;32.50;48.80;;;;;;5088889;28;20053;-77
2023/08/14 08:58:55;;;;;;;3.75;2.08;;;32.60;49.40;;;;;;5066112;28;20045;-76
2023/08/14 09:01:23;;;;;;;10.70;2.53;;;32.70;49.70;;;;;;5066278;28;20066;-77
2023/08/14 09:03:50;;;;;;;9.20;1.90;;;32.70;49.00;;;;;;5069502;28;20047;-76
2023/08/14 09:06:17;;;;;;;3.03;1.73;;;32.80;49.20;;;;;;5066860;28;20045;-77
2023/08/14 09:08:44;;;;;;;2.80;1.70;;;32.90;48.40;;;;;;5064711;28;20731;-77
2023/08/14 09:11:11;;;;;;;12.65;2.60;;;32.60;47.10;;;;;;5068804;28;20059;-76
2023/08/14 09:13:38;;;;;;;8.48;1.90;;;32.50;48.80;;;;;;5073432;28;20049;-76
2023/08/14 09:16:05;;;;;;;6.78;1.98;;;32.40;45.70;;;;;;5074740;28;20075;-77
2023/08/14 09:18:32;;;;;;;6.22;2.10;;;32.30;48.80;;;;;;5068592;28;20792;-77
2023/08/14 09:21:01;;;;;;;6.60;1.73;;;32.40;46.80;;;;;;5075549;28;20052;-77
2023/08/14 09:23:31;;;;;;;7.68;1.80;;;32.50;47.00;;;;;;5070405;28;20048;-77
2023/08/14 09:25:59;;;;;;;6.93;2.10;;;32.30;44.80;;;;;;5063052;28;20082;-76
2023/08/14 09:28:27;;;;;;;6.75;1.85;;;32.60;46.00;;;;;;5070435;28;20072;-77
2023/08/14 09:31:05;;;;;;;4.47;2.45;;;31.90;45.40;;;;;;5070557;28;20135;-77
2023/08/14 09:33:32;;;;;;;5.85;1.70;;;32.10;47.90;;;;;;5073637;28;20857;-77
2023/08/14 09:35:59;;;;;;;8.15;2.00;;;32.80;45.70;;;;;;5071319;28;20056;-77
2023/08/14 09:38:27;;;;;;;11.80;1.88;;;33.20;44.90;;;;;;5075698;28;20545;-76
2023/08/14 09:40:58;;;;;;;4.82;1.95;;;33.20;44.70;;;;;;5072468;28;20587;-77
2023/08/14 09:43:26;;;;;;;4.18;1.95;;;33.30;46.20;;;;;;5069950;28;20129;-77
2023/08/14 09:45:55;;;;;;;5.22;1.70;;;33.50;44.30;;;;;;5069250;28;20051;-77
2023/08/14 09:48:38;;;;;;;5.97;1.92;;;33.70;45.10;;;;;;5073951;28;20139;-76
2023/08/14 09:51:08;;;;;;;6.80;2.03;;;33.40;45.10;;;;;;5071060;28;20055;-77
2023/08/14 09:53:44;;;;;;;6.15;1.90;;;33.00;44.80;;;;;;5068747;28;20374;-77
2023/08/14 09:56:14;;;;;;;6.72;1.80;;;33.00;46.50;;;;;;5073113;28;20063;-77
2023/08/14 09:58:41;;;;;;;8.93;2.10;;;32.90;46.40;;;;;;5070915;28;20060;-77
2023/08/14 10:01:12;;;;;;;7.03;2.20;;;32.70;46.70;;;;;;5066650;28;20053;-77
2023/08/14 10:03:41;;;;;;;8.85;2.70;;;32.60;48.90;;;;;;5072096;28;20057;-77
2023/08/14 10:06:11;;;;;;;7.32;1.83;;;33.10;47.10;;;;;;5071462;28;20053;-77
2023/08/14 10:08:42;;;;;;;8.65;1.95;;;33.00;46.70;;;;;;5073418;28;20048;-77
2023/08/14 10:11:12;;;;;;;8.07;2.20;;;33.10;47.20;;;;;;5068141;28;20064;-77
2023/08/14 10:13:55;;;;;;;6.40;2.10;;;33.70;47.60;;;;;;5066979;28;20052;-77
2023/08/14 10:16:26;;;;;;;6.68;2.22;;;34.20;45.90;;;;;;5061072;28;20559;-77
2023/08/14 10:18:57;;;;;;;6.10;1.75;;;34.20;43.50;;;;;;5069096;28;20048;-77
2023/08/14 10:21:26;;;;;;;6.95;2.05;;;34.10;45.80;;;;;;5065239;28;20136;-77
2023/08/14 10:23:56;;;;;;;4.80;1.77;;;34.20;45.50;;;;;;5066135;28;20060;-77
2023/08/14 10:26:24;;;;;;;4.13;1.90;;;34.50;43.50;;;;;;5063468;28;20135;-77
2023/08/14 10:28:56;;;;;;;2.75;1.40;;;34.60;43.20;;;;;;5074166;28;20548;-76
2023/08/14 10:31:24;;;;;;;4.30;1.55;;;34.70;43.20;;;;;;5060959;28;20063;-77
2023/08/14 10:33:52;;;;;;;7.00;1.73;;;34.40;43.70;;;;;;5062843;28;20053;-77
2023/08/14 10:36:20;;;;;;;4.78;1.85;;;34.30;44.60;;;;;;5069062;28;20045;-76
2023/08/14 10:38:48;;;;;;;4.00;1.90;;;34.30;45.20;;;;;;5066361;28;20405;-77
2023/08/14 10:41:21;;;;;;;4.25;1.30;;;34.70;44.10;;;;;;5066332;28;20370;-77
2023/08/14 10:43:51;;;;;;;11.10;2.40;;;34.70;43.70;;;;;;5070843;28;20044;-77
2023/08/14 10:46:18;;;;;;;2.78;1.70;;;35.00;44.60;;;;;;5068182;28;20047;-77
2023/08/14 10:48:49;;;;;;;4.32;1.42;;;35.70;42.20;;;;;;5071810;28;20052;-79
2023/08/14 10:51:21;;;;;;;4.00;1.92;;;35.40;40.70;;;;;;5066400;28;20048;-79
2023/08/14 10:53:48;;;;;;;5.97;1.80;;;35.30;42.00;;;;;;5068741;28;20084;-78
2023/08/14 10:56:15;;;;;;;9.45;1.70;;;35.10;42.20;;;;;;5074788;28;20049;-78
2023/08/14 10:58:47;;;;;;;9.93;2.50;;;35.00;42.20;;;;;;5070338;28;20044;-77
2023/08/14 11:01:16;;;;;;;11.07;1.90;;;35.00;44.00;;;;;;5062721;28;20048;-78
2023/08/14 11:03:56;;;;;;;6.10;1.90;;;34.90;42.80;;;;;;5070245;28;20674;-81
2023/08/14 11:06:28;;;;;;;4.20;2.13;;;34.40;41.80;;;;;;5059798;28;20059;-76
2023/08/14 11:09:02;;;;;;;5.47;1.80;;;33.60;42.00;;;;;;5071957;28;20056;-79
2023/08/14 11:11:29;;;;;;;5.53;1.83;;;32.90;43.70;;;;;;5061606;28;20583;-80
2023/08/14 11:13:57;;;;;;;5.68;1.65;;;32.60;44.80;;;;;;5067072;28;20052;-79
2023/08/14 11:16:24;;;;;;;5.30;1.98;;;32.10;45.50;;;;;;5069730;28;20064;-80
2023/08/14 11:18:51;;;;;;;6.85;1.80;;;31.60;46.50;;;;;;5069775;28;20044;-79
2023/08/14 11:21:18;;;;;;;7.68;1.85;;;31.40;46.70;;;;;;5065362;28;20552;-78
2023/08/14 11:23:58;;;;;;;4.50;1.60;;;31.50;50.20;;;;;;5072409;28;20495;-83
2023/08/14 11:26:29;;;;;;;6.20;1.67;;;32.70;45.60;;;;;;5075929;28;20105;-81
2023/08/14 11:28:56;;;;;;;2.88;1.50;;;33.60;44.20;;;;;;5073083;28;20041;-82
2023/08/14 11:31:24;;;;;;;7.03;1.67;;;34.10;43.80;;;;;;5070849;28;20056;-83
2023/08/14 11:34:00;;;;;;;5.97;1.70;;;34.70;41.80;;;;;;5070029;28;20059;-80
2023/08/14 11:36:28;;;;;;;8.32;2.25;;;34.60;43.30;;;;;;5067963;28;20052;-80
2023/08/14 11:39:00;;;;;;;6.32;2.30;;;35.20;43.50;;;;;;5065180;28;20052;-81
2023/08/14 11:41:27;;;;;;;6.43;1.65;;;35.80;39.30;;;;;;5076109;28;20059;-81
2023/08/14 11:43:57;;;;;;;5.32;1.55;;;36.80;40.90;;;;;;5070497;28;20137;-81
2023/08/14 11:46:24;;;;;;;4.38;1.83;;;36.90;40.20;;;;;;5076079;28;20138;-81
2023/08/14 11:48:52;;;;;;;11.00;2.35;;;37.80;39.60;;;;;;5073492;28;20140;-81
2023/08/14 11:51:20;;;;;;;4.00;1.52;;;38.10;38.30;;;;;;5074135;28;20040;-81
2023/08/14 11:53:47;;;;;;;4.00;1.85;;;38.20;37.40;;;;;;5070694;28;20135;-81
2023/08/14 11:56:14;;;;;;;7.88;2.17;;;38.40;38.20;;;;;;5076524;28;20080;-82
2023/08/14 11:58:41;;;;;;;18.35;3.40;;;37.50;37.60;;;;;;5063361;28;20102;-81
2023/08/14 12:01:15;;;;;;;4.07;1.83;;;37.40;39.20;;;;;;5068892;28;20829;-81
2023/08/14 12:03:42;;;;;;;6.95;1.92;;;37.10;37.50;;;;;;5074907;28;20127;-81
2023/08/14 12:06:10;;;;;;;7.05;1.98;;;36.40;39.10;;;;;;5069907;28;20053;-81
2023/08/14 12:08:38;;;;;;;3.08;1.85;;;36.30;40.90;;;;;;5076838;28;20052;-81
2023/08/14 12:11:05;;;;;;;6.47;2.00;;;36.90;41.20;;;;;;5074408;28;20048;-81
2023/08/14 12:13:33;;;;;;;4.65;1.90;;;37.30;39.10;;;;;;5077473;28;20131;-81
2023/08/14 12:16:08;;;;;;;2.95;1.80;;;37.50;38.70;;;;;;5070835;28;20080;-81
2023/08/14 12:18:47;;;;;;;10.90;2.00;;;36.90;38.00;;;;;;5063555;28;20048;-80
2023/08/14 12:21:14;;;;;;;9.57;1.75;;;35.80;39.80;;;;;;5066750;28;20137;-80
2023/08/14 12:23:49;;;;;;;6.72;2.05;;;35.20;40.70;;;;;;5071689;28;20075;-80
2023/08/14 12:26:16;;;;;;;4.72;1.95;;;34.60;41.30;;;;;;5069571;28;20071;-80
2023/08/14 12:28:43;;;;;;;8.98;2.30;;;33.90;42.90;;;;;;5075565;28;20059;-80
2023/08/14 12:31:10;;;;;;;7.07;2.45;;;33.40;42.90;;;;;;5073012;28;20063;-80
2023/08/14 12:33:41;;;;;;;4.13;1.88;;;32.90;43.40;;;;;;5075333;28;20044;-80
2023/08/14 12:36:11;;;;;;;3.55;1.92;;;32.30;43.80;;;;;;5062089;28;20044;-80
2023/08/14 12:38:38;;;;;;;6.03;2.38;;;32.20;45.30;;;;;;5063424;28;20049;-80
2023/08/14 12:41:05;;;;;;;4.57;2.10;;;32.30;44.70;;;;;;5068181;28;20052;-80
2023/08/14 12:43:32;;;;;;;5.10;2.15;;;32.60;46.00;;;;;;5077014;28;20052;-81
2023/08/14 12:46:09;;;;;;;4.88;2.13;;;34.00;45.10;;;;;;5069581;28;20055;-80
2023/08/14 12:48:36;;;;;;;4.78;1.90;;;35.80;42.90;;;;;;5075628;28;20052;-81